sensor_id;sensor_type;location;lat;lon;timestamp;P1;durP1;ratioP1;P2;durP2;ratioP2
6785;SDS011;3430;51.192;6.048;2023-11-18T00:00:52;7.57;;;4.90;;
6785;SDS011;3430;51.192;6.048;2023-11-18T00:03:17;4.60;;;4.20;;
6785;SDS011;3430;51.192;6.048;2023-11-18T00:05:43;6.33;;;4.13;;
6785;SDS011;3430;51.192;6.048;2023-11-18T00:08:08;6.53;;;4.70;;
6785;SDS011;3430;51.192;6.048;2023-11-18T00:10:33;5.60;;;4.20;;
6785;SDS011;3430;51.192;6.048;2023-11-18T00:12:59;8.03;;;4.23;;
6785;SDS011;3430;51.192;6.048;2023-11-18T00:15:26;7.17;;;5.00;;
6785;SDS011;3430;51.192;6.048;2023-11-18T00:17:52;5.97;;;4.37;;
6785;SDS011;3430;51.192;6.048;2023-11-18T00:20:17;10.43;;;4.67;;
6785;SDS011;3430;51.192;6.048;2023-11-18T00:22:43;6.03;;;4.57;;
6785;SDS011;3430;51.192;6.048;2023-11-18T00:25:09;4.70;;;4.20;;
6785;SDS011;3430;51.192;6.048;2023-11-18T00:27:36;6.20;;;4.87;;
6785;SDS011;3430;51.192;6.048;2023-11-18T00:30:02;5.23;;;4.33;;
6785;SDS011;3430;51.192;6.048;2023-11-18T00:32:30;5.00;;;4.20;;
6785;SDS011;3430;51.192;6.048;2023-11-18T00:34:56;4.43;;;3.93;;
6785;SDS011;3430;51.192;6.048;2023-11-18T00:37:22;7.17;;;4.60;;
6785;SDS011;3430;51.192;6.048;2023-11-18T00:39:47;5.83;;;4.70;;
6785;SDS011;3430;51.192;6.048;2023-11-18T00:42:12;6.13;;;4.33;;
6785;SDS011;3430;51.192;6.048;2023-11-18T00:44:37;5.43;;;4.20;;
6785;SDS011;3430;51.192;6.048;2023-11-18T00:47:03;5.53;;;4.47;;
6785;SDS011;3430;51.192;6.048;2023-11-18T00:49:28;6.50;;;4.80;;
6785;SDS011;3430;51.192;6.048;2023-11-18T00:51:53;8.80;;;4.97;;
6785;SDS011;3430;51.192;6.048;2023-11-18T00:54:19;5.70;;;4.00;;
6785;SDS011;3430;51.192;6.048;2023-11-18T00:56:44;5.40;;;4.57;;
6785;SDS011;3430;51.192;6.048;2023-11-18T00:59:09;5.60;;;4.80;;
6785;SDS011;3430;51.192;6.048;2023-11-18T01:01:35;7.80;;;5.00;;
6785;SDS011;3430;51.192;6.048;2023-11-18T01:04:01;6.23;;;3.97;;
6785;SDS011;3430;51.192;6.048;2023-11-18T01:06:27;4.73;;;4.23;;
6785;SDS011;3430;51.192;6.048;2023-11-18T01:08:53;5.67;;;4.40;;
6785;SDS011;3430;51.192;6.048;2023-11-18T01:11:18;5.93;;;4.50;;
6785;SDS011;3430;51.192;6.048;2023-11-18T01:13:50;5.97;;;5.10;;
6785;SDS011;3430;51.192;6.048;2023-11-18T01:16:16;5.73;;;4.70;;
6785;SDS011;3430;51.192;6.048;2023-11-18T01:18:42;5.77;;;4.87;;
6785;SDS011;3430;51.192;6.048;2023-11-18T01:21:07;5.37;;;4.43;;
6785;SDS011;3430;51.192;6.048;2023-11-18T01:23:36;5.33;;;4.53;;
6785;SDS011;3430;51.192;6.048;2023-11-18T01:26:02;6.40;;;4.23;;
6785;SDS011;3430;51.192;6.048;2023-11-18T01:28:30;5.23;;;4.70;;
6785;SDS011;3430;51.192;6.048;2023-11-18T01:30:58;5.17;;;4.17;;
6785;SDS011;3430;51.192;6.048;2023-11-18T01:33:23;6.73;;;4.83;;
6785;SDS011;3430;51.192;6.048;2023-11-18T01:35:49;5.10;;;4.10;;
6785;SDS011;3430;51.192;6.048;2023-11-18T01:38:14;5.27;;;4.20;;
6785;SDS011;3430;51.192;6.048;2023-11-18T01:40:39;4.50;;;3.70;;
6785;SDS011;3430;51.192;6.048;2023-11-18T01:43:05;4.73;;;4.03;;
6785;SDS011;3430;51.192;6.048;2023-11-18T01:45:36;4.67;;;4.27;;
6785;SDS011;3430;51.192;6.048;2023-11-18T01:48:01;6.17;;;4.83;;
6785;SDS011;3430;51.192;6.048;2023-11-18T01:50:27;5.77;;;4.73;;
6785;SDS011;3430;51.192;6.048;2023-11-18T01:52:53;9.63;;;4.90;;
6785;SDS011;3430;51.192;6.048;2023-11-18T01:55:18;6.73;;;4.60;;
6785;SDS011;3430;51.192;6.048;2023-11-18T01:57:44;4.87;;;4.37;;
6785;SDS011;3430;51.192;6.048;2023-11-18T02:00:10;6.80;;;4.77;;
6785;SDS011;3430;51.192;6.048;2023-11-18T02:02:36;7.80;;;5.10;;
6785;SDS011;3430;51.192;6.048;2023-11-18T02:05:03;7.23;;;4.60;;
6785;SDS011;3430;51.192;6.048;2023-11-18T02:07:31;6.43;;;4.40;;
6785;SDS011;3430;51.192;6.048;2023-11-18T02:09:57;6.33;;;4.70;;
6785;SDS011;3430;51.192;6.048;2023-11-18T02:12:39;5.40;;;4.20;;
6785;SDS011;3430;51.192;6.048;2023-11-18T02:15:08;5.10;;;4.30;;
6785;SDS011;3430;51.192;6.048;2023-11-18T02:17:35;7.50;;;5.03;;
6785;SDS011;3430;51.192;6.048;2023-11-18T02:20:02;5.83;;;4.53;;
6785;SDS011;3430;51.192;6.048;2023-11-18T02:22:31;4.37;;;3.90;;
6785;SDS011;3430;51.192;6.048;2023-11-18T02:24:56;4.47;;;3.73;;
6785;SDS011;3430;51.192;6.048;2023-11-18T02:27:22;5.77;;;4.37;;
6785;SDS011;3430;51.192;6.048;2023-11-18T02:29:49;8.53;;;4.77;;
6785;SDS011;3430;51.192;6.048;2023-11-18T02:37:35;4.83;;;4.30;;
6785;SDS011;3430;51.192;6.048;2023-11-18T02:40:03;5.90;;;4.27;;
6785;SDS011;3430;51.192;6.048;2023-11-18T02:42:34;6.57;;;4.70;;
6785;SDS011;3430;51.192;6.048;2023-11-18T02:45:00;5.37;;;3.87;;
6785;SDS011;3430;51.192;6.048;2023-11-18T02:47:26;6.90;;;4.13;;
6785;SDS011;3430;51.192;6.048;2023-11-18T02:49:55;6.13;;;4.10;;
6785;SDS011;3430;51.192;6.048;2023-11-18T02:52:31;6.03;;;4.70;;
6785;SDS011;3430;51.192;6.048;2023-11-18T02:54:58;5.03;;;4.50;;
6785;SDS011;3430;51.192;6.048;2023-11-18T02:57:23;7.83;;;4.40;;
6785;SDS011;3430;51.192;6.048;2023-11-18T02:59:48;5.60;;;4.37;;
6785;SDS011;3430;51.192;6.048;2023-11-18T03:02:14;5.87;;;4.50;;
6785;SDS011;3430;51.192;6.048;2023-11-18T03:04:40;4.77;;;4.10;;
6785;SDS011;3430;51.192;6.048;2023-11-18T03:07:09;6.27;;;4.30;;
6785;SDS011;3430;51.192;6.048;2023-11-18T03:09:34;7.27;;;4.67;;
6785;SDS011;3430;51.192;6.048;2023-11-18T03:12:01;5.53;;;4.70;;
6785;SDS011;3430;51.192;6.048;2023-11-18T03:14:26;5.43;;;4.40;;
6785;SDS011;3430;51.192;6.048;2023-11-18T03:16:53;5.07;;;4.07;;
6785;SDS011;3430;51.192;6.048;2023-11-18T03:19:20;5.40;;;4.67;;
6785;SDS011;3430;51.192;6.048;2023-11-18T03:21:50;5.37;;;4.60;;
6785;SDS011;3430;51.192;6.048;2023-11-18T03:24:15;7.87;;;4.80;;
6785;SDS011;3430;51.192;6.048;2023-11-18T03:26:41;5.63;;;4.37;;
6785;SDS011;3430;51.192;6.048;2023-11-18T03:29:07;5.67;;;4.40;;
6785;SDS011;3430;51.192;6.048;2023-11-18T03:31:32;7.13;;;4.70;;
6785;SDS011;3430;51.192;6.048;2023-11-18T03:33:58;4.73;;;4.03;;
6785;SDS011;3430;51.192;6.048;2023-11-18T03:36:24;7.30;;;5.27;;
6785;SDS011;3430;51.192;6.048;2023-11-18T03:38:49;7.07;;;4.87;;
6785;SDS011;3430;51.192;6.048;2023-11-18T03:41:15;6.30;;;4.67;;
6785;SDS011;3430;51.192;6.048;2023-11-18T03:43:40;5.20;;;4.53;;
6785;SDS011;3430;51.192;6.048;2023-11-18T03:46:06;6.27;;;4.67;;
6785;SDS011;3430;51.192;6.048;2023-11-18T03:48:32;6.37;;;4.77;;
6785;SDS011;3430;51.192;6.048;2023-11-18T03:50:58;5.87;;;4.80;;
6785;SDS011;3430;51.192;6.048;2023-11-18T03:53:23;5.33;;;4.77;;
6785;SDS011;3430;51.192;6.048;2023-11-18T03:55:49;6.60;;;4.63;;
6785;SDS011;3430;51.192;6.048;2023-11-18T03:58:16;7.43;;;5.27;;
6785;SDS011;3430;51.192;6.048;2023-11-18T04:00:42;5.70;;;4.43;;
6785;SDS011;3430;51.192;6.048;2023-11-18T04:03:07;6.03;;;4.60;;
6785;SDS011;3430;51.192;6.048;2023-11-18T04:05:34;11.80;;;5.90;;
6785;SDS011;3430;51.192;6.048;2023-11-18T04:08:00;5.73;;;4.43;;
6785;SDS011;3430;51.192;6.048;2023-11-18T04:10:26;5.90;;;4.60;;
6785;SDS011;3430;51.192;6.048;2023-11-18T04:12:52;4.90;;;4.10;;
6785;SDS011;3430;51.192;6.048;2023-11-18T04:15:17;7.33;;;4.63;;
6785;SDS011;3430;51.192;6.048;2023-11-18T04:17:43;5.60;;;4.57;;
6785;SDS011;3430;51.192;6.048;2023-11-18T04:20:09;5.23;;;4.70;;
6785;SDS011;3430;51.192;6.048;2023-11-18T04:22:39;5.07;;;4.40;;
6785;SDS011;3430;51.192;6.048;2023-11-18T04:25:05;5.70;;;4.27;;
6785;SDS011;3430;51.192;6.048;2023-11-18T04:27:31;7.13;;;4.97;;
6785;SDS011;3430;51.192;6.048;2023-11-18T04:29:57;6.23;;;4.70;;
6785;SDS011;3430;51.192;6.048;2023-11-18T04:32:22;5.63;;;3.97;;
6785;SDS011;3430;51.192;6.048;2023-11-18T04:34:48;5.13;;;3.90;;
6785;SDS011;3430;51.192;6.048;2023-11-18T04:37:16;4.80;;;4.30;;
6785;SDS011;3430;51.192;6.048;2023-11-18T04:39:41;4.10;;;3.70;;
6785;SDS011;3430;51.192;6.048;2023-11-18T04:42:08;5.03;;;4.53;;
6785;SDS011;3430;51.192;6.048;2023-11-18T04:44:33;4.97;;;4.30;;
6785;SDS011;3430;51.192;6.048;2023-11-18T04:46:58;6.57;;;4.23;;
6785;SDS011;3430;51.192;6.048;2023-11-18T04:49:24;5.27;;;4.33;;
6785;SDS011;3430;51.192;6.048;2023-11-18T04:51:49;5.40;;;4.90;;
6785;SDS011;3430;51.192;6.048;2023-11-18T04:54:15;5.30;;;4.80;;
6785;SDS011;3430;51.192;6.048;2023-11-18T04:56:40;5.83;;;4.57;;
6785;SDS011;3430;51.192;6.048;2023-11-18T04:59:06;4.90;;;4.40;;
6785;SDS011;3430;51.192;6.048;2023-11-18T05:01:32;5.50;;;4.27;;
6785;SDS011;3430;51.192;6.048;2023-11-18T05:03:57;4.47;;;4.07;;
6785;SDS011;3430;51.192;6.048;2023-11-18T05:06:24;5.77;;;4.43;;
6785;SDS011;3430;51.192;6.048;2023-11-18T05:08:51;5.57;;;4.57;;
6785;SDS011;3430;51.192;6.048;2023-11-18T05:11:16;6.23;;;4.60;;
6785;SDS011;3430;51.192;6.048;2023-11-18T05:13:42;4.80;;;3.97;;
6785;SDS011;3430;51.192;6.048;2023-11-18T05:16:07;6.03;;;4.20;;
6785;SDS011;3430;51.192;6.048;2023-11-18T05:18:33;4.63;;;4.03;;
6785;SDS011;3430;51.192;6.048;2023-11-18T05:21:01;5.83;;;4.53;;
6785;SDS011;3430;51.192;6.048;2023-11-18T05:23:26;5.10;;;4.30;;
6785;SDS011;3430;51.192;6.048;2023-11-18T05:25:54;4.70;;;4.27;;
6785;SDS011;3430;51.192;6.048;2023-11-18T05:28:21;5.20;;;4.40;;
6785;SDS011;3430;51.192;6.048;2023-11-18T05:30:47;5.50;;;4.50;;
6785;SDS011;3430;51.192;6.048;2023-11-18T05:33:12;6.93;;;4.77;;
6785;SDS011;3430;51.192;6.048;2023-11-18T05:35:43;4.63;;;4.13;;
6785;SDS011;3430;51.192;6.048;2023-11-18T05:38:17;5.07;;;4.57;;
6785;SDS011;3430;51.192;6.048;2023-11-18T05:40:45;5.43;;;4.77;;
6785;SDS011;3430;51.192;6.048;2023-11-18T05:43:21;4.67;;;4.20;;
6785;SDS011;3430;51.192;6.048;2023-11-18T05:45:47;4.77;;;3.97;;
6785;SDS011;3430;51.192;6.048;2023-11-18T05:48:31;6.83;;;4.07;;
6785;SDS011;3430;51.192;6.048;2023-11-18T05:50:57;4.90;;;4.10;;
6785;SDS011;3430;51.192;6.048;2023-11-18T05:53:22;6.50;;;5.07;;
6785;SDS011;3430;51.192;6.048;2023-11-18T05:55:48;4.83;;;4.20;;
6785;SDS011;3430;51.192;6.048;2023-11-18T05:58:15;5.40;;;4.50;;
6785;SDS011;3430;51.192;6.048;2023-11-18T06:00:40;4.70;;;4.30;;
6785;SDS011;3430;51.192;6.048;2023-11-18T06:03:05;4.60;;;4.20;;
6785;SDS011;3430;51.192;6.048;2023-11-18T06:05:31;5.10;;;3.93;;
6785;SDS011;3430;51.192;6.048;2023-11-18T06:07:56;4.60;;;3.90;;
6785;SDS011;3430;51.192;6.048;2023-11-18T06:10:24;6.57;;;4.80;;
6785;SDS011;3430;51.192;6.048;2023-11-18T06:12:50;11.40;;;4.80;;
6785;SDS011;3430;51.192;6.048;2023-11-18T06:15:16;7.47;;;4.57;;
6785;SDS011;3430;51.192;6.048;2023-11-18T06:17:44;4.30;;;3.87;;
6785;SDS011;3430;51.192;6.048;2023-11-18T06:20:11;5.37;;;4.23;;
6785;SDS011;3430;51.192;6.048;2023-11-18T06:22:36;5.63;;;4.23;;
6785;SDS011;3430;51.192;6.048;2023-11-18T06:25:02;4.63;;;4.13;;
6785;SDS011;3430;51.192;6.048;2023-11-18T06:27:27;5.87;;;4.40;;
6785;SDS011;3430;51.192;6.048;2023-11-18T06:29:53;5.70;;;4.37;;
6785;SDS011;3430;51.192;6.048;2023-11-18T06:32:19;6.10;;;4.70;;
6785;SDS011;3430;51.192;6.048;2023-11-18T06:34:48;4.83;;;3.83;;
6785;SDS011;3430;51.192;6.048;2023-11-18T06:37:14;4.60;;;4.20;;
6785;SDS011;3430;51.192;6.048;2023-11-18T06:39:42;4.23;;;3.83;;
6785;SDS011;3430;51.192;6.048;2023-11-18T06:42:11;6.27;;;4.20;;
6785;SDS011;3430;51.192;6.048;2023-11-18T06:44:37;4.77;;;3.90;;
6785;SDS011;3430;51.192;6.048;2023-11-18T06:47:02;5.30;;;3.63;;
6785;SDS011;3430;51.192;6.048;2023-11-18T06:49:28;4.70;;;3.90;;
6785;SDS011;3430;51.192;6.048;2023-11-18T06:51:54;7.10;;;4.47;;
6785;SDS011;3430;51.192;6.048;2023-11-18T06:54:20;4.27;;;3.57;;
6785;SDS011;3430;51.192;6.048;2023-11-18T06:56:45;6.17;;;4.40;;
6785;SDS011;3430;51.192;6.048;2023-11-18T06:59:14;4.90;;;3.87;;
6785;SDS011;3430;51.192;6.048;2023-11-18T07:01:40;5.30;;;3.60;;
6785;SDS011;3430;51.192;6.048;2023-11-18T07:04:07;5.93;;;4.10;;
6785;SDS011;3430;51.192;6.048;2023-11-18T07:06:36;4.10;;;3.70;;
6785;SDS011;3430;51.192;6.048;2023-11-18T07:09:04;4.53;;;4.13;;
6785;SDS011;3430;51.192;6.048;2023-11-18T07:11:33;5.90;;;3.90;;
6785;SDS011;3430;51.192;6.048;2023-11-18T07:13:59;5.30;;;4.33;;
6785;SDS011;3430;51.192;6.048;2023-11-18T07:16:24;4.93;;;3.93;;
6785;SDS011;3430;51.192;6.048;2023-11-18T07:18:50;6.67;;;4.20;;
6785;SDS011;3430;51.192;6.048;2023-11-18T07:21:16;4.77;;;4.17;;
6785;SDS011;3430;51.192;6.048;2023-11-18T07:23:42;4.00;;;3.60;;
6785;SDS011;3430;51.192;6.048;2023-11-18T07:26:07;4.60;;;4.03;;
6785;SDS011;3430;51.192;6.048;2023-11-18T07:28:35;4.87;;;3.90;;
6785;SDS011;3430;51.192;6.048;2023-11-18T07:31:01;5.50;;;4.27;;
6785;SDS011;3430;51.192;6.048;2023-11-18T07:33:30;6.27;;;4.03;;
6785;SDS011;3430;51.192;6.048;2023-11-18T07:35:57;5.37;;;4.10;;
6785;SDS011;3430;51.192;6.048;2023-11-18T07:38:23;7.57;;;4.07;;
6785;SDS011;3430;51.192;6.048;2023-11-18T07:40:48;7.00;;;4.10;;
6785;SDS011;3430;51.192;6.048;2023-11-18T07:46:19;3.63;;;3.33;;
6785;SDS011;3430;51.192;6.048;2023-11-18T07:49:03;4.33;;;3.47;;
6785;SDS011;3430;51.192;6.048;2023-11-18T07:51:29;4.37;;;3.60;;
6785;SDS011;3430;51.192;6.048;2023-11-18T07:53:55;3.80;;;3.37;;
6785;SDS011;3430;51.192;6.048;2023-11-18T07:56:20;4.27;;;3.87;;
6785;SDS011;3430;51.192;6.048;2023-11-18T07:58:47;5.40;;;4.00;;
6785;SDS011;3430;51.192;6.048;2023-11-18T08:01:13;5.40;;;3.90;;
6785;SDS011;3430;51.192;6.048;2023-11-18T08:03:41;4.63;;;3.83;;
6785;SDS011;3430;51.192;6.048;2023-11-18T08:06:07;3.67;;;3.37;;
6785;SDS011;3430;51.192;6.048;2023-11-18T08:08:33;4.27;;;3.43;;
6785;SDS011;3430;51.192;6.048;2023-11-18T08:10:58;4.07;;;3.57;;
6785;SDS011;3430;51.192;6.048;2023-11-18T08:13:25;5.17;;;3.10;;
6785;SDS011;3430;51.192;6.048;2023-11-18T08:15:51;3.77;;;3.40;;
6785;SDS011;3430;51.192;6.048;2023-11-18T08:18:17;5.60;;;3.97;;
6785;SDS011;3430;51.192;6.048;2023-11-18T08:20:43;4.63;;;3.50;;
6785;SDS011;3430;51.192;6.048;2023-11-18T08:23:09;3.53;;;3.20;;
6785;SDS011;3430;51.192;6.048;2023-11-18T08:25:34;4.50;;;3.80;;
6785;SDS011;3430;51.192;6.048;2023-11-18T08:28:01;4.13;;;3.60;;
6785;SDS011;3430;51.192;6.048;2023-11-18T08:30:27;5.03;;;3.50;;
6785;SDS011;3430;51.192;6.048;2023-11-18T08:32:52;8.07;;;3.40;;
6785;SDS011;3430;51.192;6.048;2023-11-18T08:35:18;4.73;;;3.60;;
6785;SDS011;3430;51.192;6.048;2023-11-18T08:37:43;5.10;;;3.53;;
6785;SDS011;3430;51.192;6.048;2023-11-18T08:40:10;4.87;;;3.17;;
6785;SDS011;3430;51.192;6.048;2023-11-18T08:45:14;6.63;;;3.30;;
6785;SDS011;3430;51.192;6.048;2023-11-18T08:47:42;3.53;;;3.23;;
6785;SDS011;3430;51.192;6.048;2023-11-18T08:50:07;4.17;;;3.60;;
6785;SDS011;3430;51.192;6.048;2023-11-18T08:52:37;3.47;;;3.17;;
6785;SDS011;3430;51.192;6.048;2023-11-18T08:55:02;4.30;;;3.53;;
6785;SDS011;3430;51.192;6.048;2023-11-18T08:57:46;6.43;;;3.40;;
6785;SDS011;3430;51.192;6.048;2023-11-18T09:00:28;4.93;;;3.80;;
6785;SDS011;3430;51.192;6.048;2023-11-18T09:03:12;3.67;;;3.07;;
6785;SDS011;3430;51.192;6.048;2023-11-18T09:08:24;3.93;;;3.40;;
6785;SDS011;3430;51.192;6.048;2023-11-18T09:10:50;3.60;;;3.07;;
6785;SDS011;3430;51.192;6.048;2023-11-18T09:13:19;3.30;;;3.00;;
6785;SDS011;3430;51.192;6.048;2023-11-18T09:15:46;3.70;;;3.30;;
6785;SDS011;3430;51.192;6.048;2023-11-18T09:18:12;4.90;;;3.57;;
6785;SDS011;3430;51.192;6.048;2023-11-18T09:20:37;3.87;;;3.03;;
6785;SDS011;3430;51.192;6.048;2023-11-18T09:23:05;4.10;;;3.43;;
6785;SDS011;3430;51.192;6.048;2023-11-18T09:25:32;4.90;;;3.00;;
6785;SDS011;3430;51.192;6.048;2023-11-18T09:27:58;4.97;;;3.73;;
6785;SDS011;3430;51.192;6.048;2023-11-18T09:30:23;4.97;;;3.20;;
6785;SDS011;3430;51.192;6.048;2023-11-18T09:32:49;5.33;;;3.33;;
6785;SDS011;3430;51.192;6.048;2023-11-18T09:35:16;3.43;;;3.03;;
6785;SDS011;3430;51.192;6.048;2023-11-18T09:37:44;3.30;;;3.00;;
6785;SDS011;3430;51.192;6.048;2023-11-18T09:40:13;4.60;;;3.17;;
6785;SDS011;3430;51.192;6.048;2023-11-18T09:42:39;3.27;;;2.97;;
6785;SDS011;3430;51.192;6.048;2023-11-18T09:45:05;4.10;;;3.70;;
6785;SDS011;3430;51.192;6.048;2023-11-18T09:47:37;4.40;;;2.93;;
6785;SDS011;3430;51.192;6.048;2023-11-18T09:50:06;4.07;;;3.17;;
6785;SDS011;3430;51.192;6.048;2023-11-18T09:52:35;3.20;;;2.90;;
6785;SDS011;3430;51.192;6.048;2023-11-18T09:55:04;5.23;;;3.43;;
6785;SDS011;3430;51.192;6.048;2023-11-18T09:57:40;3.17;;;2.87;;
6785;SDS011;3430;51.192;6.048;2023-11-18T10:00:11;2.73;;;2.53;;
6785;SDS011;3430;51.192;6.048;2023-11-18T10:02:52;3.10;;;2.80;;
6785;SDS011;3430;51.192;6.048;2023-11-18T10:05:19;3.17;;;2.80;;
6785;SDS011;3430;51.192;6.048;2023-11-18T10:07:49;3.87;;;2.93;;
6785;SDS011;3430;51.192;6.048;2023-11-18T10:10:15;3.97;;;3.27;;
6785;SDS011;3430;51.192;6.048;2023-11-18T10:12:44;3.33;;;2.90;;
6785;SDS011;3430;51.192;6.048;2023-11-18T10:15:16;3.10;;;2.80;;
6785;SDS011;3430;51.192;6.048;2023-11-18T10:17:43;3.37;;;3.07;;
6785;SDS011;3430;51.192;6.048;2023-11-18T10:20:46;5.63;;;3.00;;
6785;SDS011;3430;51.192;6.048;2023-11-18T10:23:15;3.60;;;3.20;;
6785;SDS011;3430;51.192;6.048;2023-11-18T10:25:47;3.10;;;2.80;;
6785;SDS011;3430;51.192;6.048;2023-11-18T10:28:21;5.50;;;3.43;;
6785;SDS011;3430;51.192;6.048;2023-11-18T10:30:48;2.53;;;2.33;;
6785;SDS011;3430;51.192;6.048;2023-11-18T10:33:16;5.83;;;2.73;;
6785;SDS011;3430;51.192;6.048;2023-11-18T10:35:48;3.30;;;3.00;;
6785;SDS011;3430;51.192;6.048;2023-11-18T10:38:16;3.50;;;2.93;;
6785;SDS011;3430;51.192;6.048;2023-11-18T10:40:41;2.70;;;2.50;;
6785;SDS011;3430;51.192;6.048;2023-11-18T10:43:09;3.23;;;2.90;;
6785;SDS011;3430;51.192;6.048;2023-11-18T10:45:35;3.13;;;2.80;;
6785;SDS011;3430;51.192;6.048;2023-11-18T10:48:05;3.37;;;3.07;;
6785;SDS011;3430;51.192;6.048;2023-11-18T10:50:31;3.27;;;2.97;;
6785;SDS011;3430;51.192;6.048;2023-11-18T10:53:00;3.60;;;2.90;;
6785;SDS011;3430;51.192;6.048;2023-11-18T10:55:36;4.63;;;2.50;;
6785;SDS011;3430;51.192;6.048;2023-11-18T10:58:02;3.23;;;2.93;;
6785;SDS011;3430;51.192;6.048;2023-11-18T11:00:50;3.00;;;2.73;;
6785;SDS011;3430;51.192;6.048;2023-11-18T11:03:18;5.23;;;3.10;;
6785;SDS011;3430;51.192;6.048;2023-11-18T11:05:44;2.80;;;2.57;;
6785;SDS011;3430;51.192;6.048;2023-11-18T11:08:13;4.10;;;2.77;;
6785;SDS011;3430;51.192;6.048;2023-11-18T11:10:45;2.80;;;2.60;;
6785;SDS011;3430;51.192;6.048;2023-11-18T11:13:13;3.07;;;2.80;;
6785;SDS011;3430;51.192;6.048;2023-11-18T11:15:43;3.13;;;2.93;;
6785;SDS011;3430;51.192;6.048;2023-11-18T11:18:14;3.90;;;3.27;;
6785;SDS011;3430;51.192;6.048;2023-11-18T11:20:53;5.03;;;3.23;;
6785;SDS011;3430;51.192;6.048;2023-11-18T11:23:30;3.00;;;2.80;;
6785;SDS011;3430;51.192;6.048;2023-11-18T11:28:52;3.40;;;2.53;;
6785;SDS011;3430;51.192;6.048;2023-11-18T11:31:20;3.20;;;2.90;;
6785;SDS011;3430;51.192;6.048;2023-11-18T11:34:03;3.40;;;2.40;;
6785;SDS011;3430;51.192;6.048;2023-11-18T11:36:41;3.30;;;3.00;;
6785;SDS011;3430;51.192;6.048;2023-11-18T11:39:07;3.47;;;2.73;;
6785;SDS011;3430;51.192;6.048;2023-11-18T11:41:43;3.20;;;2.77;;
6785;SDS011;3430;51.192;6.048;2023-11-18T11:44:10;4.90;;;3.20;;
6785;SDS011;3430;51.192;6.048;2023-11-18T11:46:37;3.10;;;2.83;;
6785;SDS011;3430;51.192;6.048;2023-11-18T11:49:07;4.47;;;2.40;;
6785;SDS011;3430;51.192;6.048;2023-11-18T11:51:55;3.97;;;2.67;;
6785;SDS011;3430;51.192;6.048;2023-11-18T11:54:27;4.60;;;2.80;;
6785;SDS011;3430;51.192;6.048;2023-11-18T11:56:56;6.73;;;2.87;;
6785;SDS011;3430;51.192;6.048;2023-11-18T12:00:25;5.77;;;2.60;;
6785;SDS011;3430;51.192;6.048;2023-11-18T12:02:22;4.67;;;2.93;;
6785;SDS011;3430;51.192;6.048;2023-11-18T12:04:55;3.53;;;2.47;;
6785;SDS011;3430;51.192;6.048;2023-11-18T12:07:24;3.13;;;2.80;;
6785;SDS011;3430;51.192;6.048;2023-11-18T12:09:58;4.07;;;2.60;;
6785;SDS011;3430;51.192;6.048;2023-11-18T12:12:25;3.37;;;3.07;;
6785;SDS011;3430;51.192;6.048;2023-11-18T12:23:12;4.03;;;2.60;;
6785;SDS011;3430;51.192;6.048;2023-11-18T12:25:46;3.67;;;2.50;;
6785;SDS011;3430;51.192;6.048;2023-11-18T12:28:17;3.47;;;2.40;;
6785;SDS011;3430;51.192;6.048;2023-11-18T12:30:47;6.63;;;2.83;;
6785;SDS011;3430;51.192;6.048;2023-11-18T12:33:25;3.57;;;2.43;;
6785;SDS011;3430;51.192;6.048;2023-11-18T12:49:16;2.63;;;2.30;;
6785;SDS011;3430;51.192;6.048;2023-11-18T12:51:42;7.03;;;2.37;;
6785;SDS011;3430;51.192;6.048;2023-11-18T12:54:09;2.73;;;2.53;;
6785;SDS011;3430;51.192;6.048;2023-11-18T12:56:37;2.70;;;2.50;;
6785;SDS011;3430;51.192;6.048;2023-11-18T12:59:03;3.40;;;2.40;;
6785;SDS011;3430;51.192;6.048;2023-11-18T13:01:34;2.53;;;2.27;;
6785;SDS011;3430;51.192;6.048;2023-11-18T13:04:04;3.30;;;2.40;;
6785;SDS011;3430;51.192;6.048;2023-11-18T13:06:30;4.10;;;3.07;;
6785;SDS011;3430;51.192;6.048;2023-11-18T13:08:55;5.50;;;2.40;;
6785;SDS011;3430;51.192;6.048;2023-11-18T13:11:24;3.30;;;2.37;;
6785;SDS011;3430;51.192;6.048;2023-11-18T13:13:52;2.90;;;2.60;;
6785;SDS011;3430;51.192;6.048;2023-11-18T13:16:18;4.40;;;2.27;;
6785;SDS011;3430;51.192;6.048;2023-11-18T13:18:44;2.60;;;2.40;;
6785;SDS011;3430;51.192;6.048;2023-11-18T13:21:16;2.37;;;2.23;;
6785;SDS011;3430;51.192;6.048;2023-11-18T13:23:41;2.83;;;2.57;;
6785;SDS011;3430;51.192;6.048;2023-11-18T13:26:09;2.63;;;2.37;;
6785;SDS011;3430;51.192;6.048;2023-11-18T13:28:36;4.47;;;2.90;;
6785;SDS011;3430;51.192;6.048;2023-11-18T13:31:04;2.77;;;2.40;;
6785;SDS011;3430;51.192;6.048;2023-11-18T13:33:35;2.80;;;2.50;;
6785;SDS011;3430;51.192;6.048;2023-11-18T13:36:01;2.77;;;2.50;;
6785;SDS011;3430;51.192;6.048;2023-11-18T13:38:29;5.47;;;2.70;;
6785;SDS011;3430;51.192;6.048;2023-11-18T13:40:54;2.70;;;2.50;;
6785;SDS011;3430;51.192;6.048;2023-11-18T13:43:20;7.33;;;2.53;;
6785;SDS011;3430;51.192;6.048;2023-11-18T13:45:50;2.50;;;2.30;;
6785;SDS011;3430;51.192;6.048;2023-11-18T13:48:16;2.40;;;2.20;;
6785;SDS011;3430;51.192;6.048;2023-11-18T13:50:42;2.83;;;2.50;;
6785;SDS011;3430;51.192;6.048;2023-11-18T13:53:08;2.93;;;2.43;;
6785;SDS011;3430;51.192;6.048;2023-11-18T13:55:33;3.30;;;2.30;;
6785;SDS011;3430;51.192;6.048;2023-11-18T13:58:01;3.73;;;2.77;;
6785;SDS011;3430;51.192;6.048;2023-11-18T14:00:30;2.27;;;2.10;;
6785;SDS011;3430;51.192;6.048;2023-11-18T14:02:57;4.07;;;2.27;;
6785;SDS011;3430;51.192;6.048;2023-11-18T14:05:23;3.03;;;2.60;;
6785;SDS011;3430;51.192;6.048;2023-11-18T14:07:52;2.60;;;2.17;;
6785;SDS011;3430;51.192;6.048;2023-11-18T14:10:21;4.43;;;2.37;;
6785;SDS011;3430;51.192;6.048;2023-11-18T14:13:02;5.23;;;2.50;;
6785;SDS011;3430;51.192;6.048;2023-11-18T14:15:29;4.27;;;2.60;;
6785;SDS011;3430;51.192;6.048;2023-11-18T14:17:55;3.13;;;2.83;;
6785;SDS011;3430;51.192;6.048;2023-11-18T14:20:20;4.57;;;2.80;;
6785;SDS011;3430;51.192;6.048;2023-11-18T14:22:48;5.60;;;2.40;;
6785;SDS011;3430;51.192;6.048;2023-11-18T14:25:14;5.07;;;2.90;;
6785;SDS011;3430;51.192;6.048;2023-11-18T14:27:39;3.20;;;2.47;;
6785;SDS011;3430;51.192;6.048;2023-11-18T14:30:06;2.60;;;2.40;;
6785;SDS011;3430;51.192;6.048;2023-11-18T14:32:34;4.67;;;2.40;;
6785;SDS011;3430;51.192;6.048;2023-11-18T14:35:00;2.90;;;2.40;;
6785;SDS011;3430;51.192;6.048;2023-11-18T14:37:26;2.63;;;2.17;;
6785;SDS011;3430;51.192;6.048;2023-11-18T14:39:51;3.10;;;2.30;;
6785;SDS011;3430;51.192;6.048;2023-11-18T14:42:18;2.50;;;2.30;;
6785;SDS011;3430;51.192;6.048;2023-11-18T14:44:46;2.97;;;2.73;;
6785;SDS011;3430;51.192;6.048;2023-11-18T14:47:11;2.47;;;2.27;;
6785;SDS011;3430;51.192;6.048;2023-11-18T14:49:37;5.20;;;2.37;;
6785;SDS011;3430;51.192;6.048;2023-11-18T14:52:02;2.87;;;2.43;;
6785;SDS011;3430;51.192;6.048;2023-11-18T14:54:27;3.13;;;2.50;;
6785;SDS011;3430;51.192;6.048;2023-11-18T14:56:55;2.47;;;2.27;;
6785;SDS011;3430;51.192;6.048;2023-11-18T14:59:20;2.13;;;1.97;;
6785;SDS011;3430;51.192;6.048;2023-11-18T15:01:47;2.13;;;2.03;;
6785;SDS011;3430;51.192;6.048;2023-11-18T15:04:13;2.33;;;2.13;;
6785;SDS011;3430;51.192;6.048;2023-11-18T15:06:38;3.10;;;2.67;;
6785;SDS011;3430;51.192;6.048;2023-11-18T15:09:04;2.73;;;2.20;;
6785;SDS011;3430;51.192;6.048;2023-11-18T15:11:30;2.03;;;1.93;;
6785;SDS011;3430;51.192;6.048;2023-11-18T15:13:58;5.73;;;2.07;;
6785;SDS011;3430;51.192;6.048;2023-11-18T15:16:24;2.53;;;2.23;;
6785;SDS011;3430;51.192;6.048;2023-11-18T15:18:49;2.50;;;2.10;;
6785;SDS011;3430;51.192;6.048;2023-11-18T15:21:17;3.63;;;2.50;;
6785;SDS011;3430;51.192;6.048;2023-11-18T15:23:43;2.43;;;2.20;;
6785;SDS011;3430;51.192;6.048;2023-11-18T15:26:09;1.97;;;1.87;;
6785;SDS011;3430;51.192;6.048;2023-11-18T15:28:35;2.60;;;2.40;;
6785;SDS011;3430;51.192;6.048;2023-11-18T15:31:01;2.43;;;2.23;;
6785;SDS011;3430;51.192;6.048;2023-11-18T15:33:28;2.17;;;1.97;;
6785;SDS011;3430;51.192;6.048;2023-11-18T15:35:54;2.43;;;2.03;;
6785;SDS011;3430;51.192;6.048;2023-11-18T15:38:19;2.67;;;2.47;;
6785;SDS011;3430;51.192;6.048;2023-11-18T15:40:45;2.10;;;2.00;;
6785;SDS011;3430;51.192;6.048;2023-11-18T15:43:10;2.57;;;2.33;;
6785;SDS011;3430;51.192;6.048;2023-11-18T15:45:37;2.83;;;2.27;;
6785;SDS011;3430;51.192;6.048;2023-11-18T15:48:02;2.63;;;2.10;;
6785;SDS011;3430;51.192;6.048;2023-11-18T15:50:32;2.87;;;2.00;;
6785;SDS011;3430;51.192;6.048;2023-11-18T15:53:00;2.20;;;2.10;;
6785;SDS011;3430;51.192;6.048;2023-11-18T15:55:26;3.63;;;3.33;;